This is the latest recevied weather packets stored in our database for station/object IZ1RFL-3. If no packets are shown the sender has not sent any weather packets the latest 10 day(s).
| Time | Temp. | Humidity | Pressure | Rain* | Wind** | Luminosity | Snow |
|---|---|---|---|---|---|---|---|
| 1788527552 | 35.56° C | 25% | 1018.4 hPa | - | - | - | - |
| 1788526652 | 35.56° C | 27% | 1018.7 hPa | - | - | - | - |
| 1788525752 | 36.11° C | 27% | 1018.9 hPa | - | - | - | - |
| 1788524852 | 35.56° C | 27% | 1019.2 hPa | - | - | - | - |
| 1788523952 | 35° C | 28% | 1019.4 hPa | - | - | - | - |
| 1788523052 | 35° C | 29% | 1019.5 hPa | - | - | - | - |
| 1788522152 | 33.89° C | 31% | 1019.6 hPa | - | - | - | - |
| 1788521252 | 32.22° C | 34% | 1019.7 hPa | - | - | - | - |
| 1788520352 | 33.33° C | 32% | 1020 hPa | - | - | - | - |
| 1788519452 | 32.22° C | 34% | 1020.1 hPa | - | - | - | - |
| 1788518552 | 32.22° C | 35% | 1020.3 hPa | - | - | - | - |
| 1788517652 | 33.89° C | 31% | 1020.5 hPa | - | - | - | - |
| 1788516752 | 33.33° C | 32% | 1020.7 hPa | - | - | - | - |
| 1788515852 | 31.11° C | 36% | 1020.9 hPa | - | - | - | - |
| 1788514952 | 29.44° C | 39% | 1021.1 hPa | - | - | - | - |
| 1788514052 | 30° C | 37% | 1021.2 hPa | - | - | - | - |
| 1788513152 | 29.44° C | 38% | 1021.3 hPa | - | - | - | - |
| 1788512252 | 29.44° C | 39% | 1021.2 hPa | - | - | - | - |
| 1788511352 | 29.44° C | 39% | 1021.2 hPa | - | - | - | - |
| 1788510452 | 28.89° C | 40% | 1021.1 hPa | - | - | - | - |
| 1788509552 | 28.33° C | 41% | 1021.1 hPa | - | - | - | - |
| 1788508652 | 27.78° C | 42% | 1021 hPa | - | - | - | - |
| 1788507752 | 26.11° C | 45% | 1021 hPa | - | - | - | - |
| 1788506852 | 26.67° C | 44% | 1021 hPa | - | - | - | - |
| 1788505952 | 26.11° C | 45% | 1020.9 hPa | - | - | - | - |
* Rain since midnight (hover to see other rain measurements)
** Current wind speed in m/s (hover to see current wind gust speed)